sensor_id;sensor_type;location;lat;lon;timestamp;pressure;altitude;pressure_sealevel;temperature;humidity
27210;BME280;14721;42.668;23.386;2023-03-21T00:01:00;95107.94;;;12.78;55.60
27210;BME280;14721;42.668;23.386;2023-03-21T00:03:30;95094.03;;;12.64;56.22
27210;BME280;14721;42.668;23.386;2023-03-21T00:05:57;95094.88;;;12.64;56.68
27210;BME280;14721;42.668;23.386;2023-03-21T00:08:23;95095.66;;;12.55;56.98
27210;BME280;14721;42.668;23.386;2023-03-21T00:11:01;95089.78;;;12.61;57.00
27210;BME280;14721;42.668;23.386;2023-03-21T00:13:28;95096.72;;;12.64;56.74
27210;BME280;14721;42.668;23.386;2023-03-21T00:15:57;95086.44;;;12.69;56.87
27210;BME280;14721;42.668;23.386;2023-03-21T00:18:27;95095.28;;;12.60;57.25
27210;BME280;14721;42.668;23.386;2023-03-21T00:21:01;95094.09;;;12.53;57.17
27210;BME280;14721;42.668;23.386;2023-03-21T00:23:28;95102.28;;;12.51;57.90
27210;BME280;14721;42.668;23.386;2023-03-21T00:25:54;95101.16;;;12.54;58.51
27210;BME280;14721;42.668;23.386;2023-03-21T00:28:21;95090.09;;;12.27;59.60
27210;BME280;14721;42.668;23.386;2023-03-21T00:30:46;95090.56;;;12.32;58.53
27210;BME280;14721;42.668;23.386;2023-03-21T00:33:12;95095.53;;;12.36;58.57
27210;BME280;14721;42.668;23.386;2023-03-21T00:35:39;95088.16;;;12.29;59.47
27210;BME280;14721;42.668;23.386;2023-03-21T00:38:08;95102.91;;;12.23;60.37
27210;BME280;14721;42.668;23.386;2023-03-21T00:40:34;95095.59;;;11.94;60.67
27210;BME280;14721;42.668;23.386;2023-03-21T00:42:59;95106.16;;;12.06;60.43
27210;BME280;14721;42.668;23.386;2023-03-21T00:45:25;95103.34;;;12.08;60.46
27210;BME280;14721;42.668;23.386;2023-03-21T00:47:51;95113.25;;;12.28;60.05
27210;BME280;14721;42.668;23.386;2023-03-21T00:50:17;95107.63;;;12.31;59.52
27210;BME280;14721;42.668;23.386;2023-03-21T00:52:43;95102.28;;;11.99;60.45
27210;BME280;14721;42.668;23.386;2023-03-21T00:55:14;95100.38;;;11.90;60.99
27210;BME280;14721;42.668;23.386;2023-03-21T00:57:40;95105.50;;;11.82;61.28
27210;BME280;14721;42.668;23.386;2023-03-21T01:00:10;95084.59;;;11.76;60.67
27210;BME280;14721;42.668;23.386;2023-03-21T01:02:37;95095.19;;;11.67;61.50
27210;BME280;14721;42.668;23.386;2023-03-21T01:05:08;95092.13;;;11.71;61.11
27210;BME280;14721;42.668;23.386;2023-03-21T01:07:36;95085.97;;;11.48;62.16
27210;BME280;14721;42.668;23.386;2023-03-21T01:10:02;95099.13;;;11.40;62.94
27210;BME280;14721;42.668;23.386;2023-03-21T01:12:28;95103.75;;;11.50;62.48
27210;BME280;14721;42.668;23.386;2023-03-21T01:14:53;95092.56;;;11.33;63.25
27210;BME280;14721;42.668;23.386;2023-03-21T01:17:19;95091.47;;;11.36;62.91
27210;BME280;14721;42.668;23.386;2023-03-21T01:19:44;95087.31;;;11.43;62.51
27210;BME280;14721;42.668;23.386;2023-03-21T01:22:10;95072.38;;;11.29;62.61
27210;BME280;14721;42.668;23.386;2023-03-21T01:24:36;95089.19;;;11.20;62.60
27210;BME280;14721;42.668;23.386;2023-03-21T01:27:02;95085.75;;;11.18;63.53
27210;BME280;14721;42.668;23.386;2023-03-21T01:29:27;95083.00;;;11.09;63.91
27210;BME280;14721;42.668;23.386;2023-03-21T01:31:53;95084.94;;;11.07;64.30
27210;BME280;14721;42.668;23.386;2023-03-21T01:34:20;95084.69;;;10.99;64.41
27210;BME280;14721;42.668;23.386;2023-03-21T01:36:45;95088.47;;;10.96;64.55
27210;BME280;14721;42.668;23.386;2023-03-21T01:39:11;95068.28;;;10.81;65.56
27210;BME280;14721;42.668;23.386;2023-03-21T01:41:41;95085.03;;;10.94;65.21
27210;BME280;14721;42.668;23.386;2023-03-21T01:44:13;95058.81;;;10.88;64.95
27210;BME280;14721;42.668;23.386;2023-03-21T01:46:43;95090.28;;;11.07;65.16
27210;BME280;14721;42.668;23.386;2023-03-21T01:51:49;95083.06;;;11.40;62.97
27210;BME280;14721;42.668;23.386;2023-03-21T01:54:21;95077.44;;;11.55;62.36
27210;BME280;14721;42.668;23.386;2023-03-21T01:56:53;95073.94;;;11.43;62.64
27210;BME280;14721;42.668;23.386;2023-03-21T01:59:31;95055.53;;;11.18;63.08
27210;BME280;14721;42.668;23.386;2023-03-21T02:02:00;95084.06;;;11.17;63.41
27210;BME280;14721;42.668;23.386;2023-03-21T02:04:32;95083.13;;;11.07;63.70
27210;BME280;14721;42.668;23.386;2023-03-21T02:07:04;95084.06;;;11.17;63.00
27210;BME280;14721;42.668;23.386;2023-03-21T02:09:34;95086.63;;;11.08;63.32
27210;BME280;14721;42.668;23.386;2023-03-21T02:12:02;95061.72;;;10.85;63.98
27210;BME280;14721;42.668;23.386;2023-03-21T02:14:29;95064.75;;;10.92;63.74
27210;BME280;14721;42.668;23.386;2023-03-21T02:28:01;95081.16;;;10.87;63.98
27210;BME280;14721;42.668;23.386;2023-03-21T02:30:48;95013.38;;;10.22;64.67
27210;BME280;14721;42.668;23.386;2023-03-21T02:42:15;95071.66;;;10.39;66.49
27210;BME280;14721;42.668;23.386;2023-03-21T02:45:00;95077.47;;;10.33;66.95
27210;BME280;14721;42.668;23.386;2023-03-21T02:52:30;95074.00;;;10.09;68.68
27210;BME280;14721;42.668;23.386;2023-03-21T02:54:59;95074.78;;;10.22;68.32
27210;BME280;14721;42.668;23.386;2023-03-21T02:57:30;95080.28;;;10.43;67.75
27210;BME280;14721;42.668;23.386;2023-03-21T02:59:56;95083.44;;;10.59;67.27
27210;BME280;14721;42.668;23.386;2023-03-21T03:02:26;95079.44;;;10.64;66.92
27210;BME280;14721;42.668;23.386;2023-03-21T03:04:52;95050.28;;;10.05;68.42
27210;BME280;14721;42.668;23.386;2023-03-21T03:07:29;95071.63;;;9.94;69.62
27210;BME280;14721;42.668;23.386;2023-03-21T03:10:25;95076.34;;;9.90;69.81
27210;BME280;14721;42.668;23.386;2023-03-21T03:24:09;95080.66;;;9.56;70.86
27210;BME280;14721;42.668;23.386;2023-03-21T03:29:20;95073.63;;;9.55;70.51
27210;BME280;14721;42.668;23.386;2023-03-21T03:31:51;95058.72;;;9.53;70.36
27210;BME280;14721;42.668;23.386;2023-03-21T03:34:22;95075.50;;;9.66;70.38
27210;BME280;14721;42.668;23.386;2023-03-21T03:36:55;95080.81;;;9.90;69.74
27210;BME280;14721;42.668;23.386;2023-03-21T03:39:26;95078.03;;;10.15;68.79
27210;BME280;14721;42.668;23.386;2023-03-21T03:42:11;95073.22;;;10.31;67.56
27210;BME280;14721;42.668;23.386;2023-03-21T03:44:38;95074.06;;;9.97;68.30
27210;BME280;14721;42.668;23.386;2023-03-21T03:47:11;95077.25;;;9.78;68.88
27210;BME280;14721;42.668;23.386;2023-03-21T03:50:01;95059.91;;;9.73;68.32
27210;BME280;14721;42.668;23.386;2023-03-21T03:52:43;95077.53;;;9.63;69.36
27210;BME280;14721;42.668;23.386;2023-03-21T03:55:14;95076.13;;;9.46;70.12
27210;BME280;14721;42.668;23.386;2023-03-21T03:57:45;95084.94;;;9.59;69.91
27210;BME280;14721;42.668;23.386;2023-03-21T04:00:12;95080.50;;;9.47;69.90
27210;BME280;14721;42.668;23.386;2023-03-21T04:02:39;95091.44;;;9.55;69.98
27210;BME280;14721;42.668;23.386;2023-03-21T04:05:05;95080.75;;;9.44;70.14
27210;BME280;14721;42.668;23.386;2023-03-21T04:07:31;95085.03;;;9.34;70.54
27210;BME280;14721;42.668;23.386;2023-03-21T04:09:56;95077.78;;;9.36;70.66
27210;BME280;14721;42.668;23.386;2023-03-21T04:12:22;95081.78;;;9.41;70.38
27210;BME280;14721;42.668;23.386;2023-03-21T04:17:29;95082.41;;;9.69;69.91
27210;BME280;14721;42.668;23.386;2023-03-21T04:19:57;95084.41;;;9.78;69.65
27210;BME280;14721;42.668;23.386;2023-03-21T04:22:23;95082.88;;;9.86;69.53
27210;BME280;14721;42.668;23.386;2023-03-21T04:24:49;95079.31;;;9.51;70.11
27210;BME280;14721;42.668;23.386;2023-03-21T04:27:14;95072.88;;;9.06;71.76
27210;BME280;14721;42.668;23.386;2023-03-21T04:29:43;95077.41;;;9.17;72.05
27210;BME280;14721;42.668;23.386;2023-03-21T04:32:09;95070.53;;;9.02;72.48
27210;BME280;14721;42.668;23.386;2023-03-21T04:34:42;95069.41;;;8.81;74.04
27210;BME280;14721;42.668;23.386;2023-03-21T04:37:16;95064.63;;;8.73;74.60
27210;BME280;14721;42.668;23.386;2023-03-21T04:39:43;95075.06;;;8.64;74.59
27210;BME280;14721;42.668;23.386;2023-03-21T04:42:20;95078.16;;;8.70;74.77
27210;BME280;14721;42.668;23.386;2023-03-21T04:44:47;95078.06;;;8.72;75.86
27210;BME280;14721;42.668;23.386;2023-03-21T04:47:13;95088.16;;;8.67;75.48
27210;BME280;14721;42.668;23.386;2023-03-21T04:49:41;95074.75;;;8.68;75.56
27210;BME280;14721;42.668;23.386;2023-03-21T04:52:07;95076.66;;;8.79;75.08
27210;BME280;14721;42.668;23.386;2023-03-21T04:54:32;95081.88;;;9.16;74.51
27210;BME280;14721;42.668;23.386;2023-03-21T04:56:58;95084.66;;;9.51;73.16
27210;BME280;14721;42.668;23.386;2023-03-21T04:59:24;95077.66;;;9.61;72.23
27210;BME280;14721;42.668;23.386;2023-03-21T05:01:50;95075.41;;;9.44;72.13
27210;BME280;14721;42.668;23.386;2023-03-21T05:04:16;95082.19;;;9.48;71.96
27210;BME280;14721;42.668;23.386;2023-03-21T05:06:44;95084.66;;;9.51;70.98
27210;BME280;14721;42.668;23.386;2023-03-21T05:09:11;95094.06;;;9.68;70.39
27210;BME280;14721;42.668;23.386;2023-03-21T05:11:38;95096.44;;;9.59;70.74
27210;BME280;14721;42.668;23.386;2023-03-21T05:14:07;95093.72;;;9.72;71.89
27210;BME280;14721;42.668;23.386;2023-03-21T05:16:35;95098.50;;;9.80;72.37
27210;BME280;14721;42.668;23.386;2023-03-21T05:19:03;95059.31;;;9.56;72.38
27210;BME280;14721;42.668;23.386;2023-03-21T05:21:34;95097.81;;;9.89;72.56
27210;BME280;14721;42.668;23.386;2023-03-21T05:24:08;95095.06;;;10.01;72.13
27210;BME280;14721;42.668;23.386;2023-03-21T05:26:38;95098.03;;;10.09;71.30
27210;BME280;14721;42.668;23.386;2023-03-21T05:29:04;95096.25;;;9.97;69.86
27210;BME280;14721;42.668;23.386;2023-03-21T05:31:30;95091.63;;;10.12;70.71
27210;BME280;14721;42.668;23.386;2023-03-21T05:33:56;95096.16;;;10.22;68.72
27210;BME280;14721;42.668;23.386;2023-03-21T05:36:21;95093.00;;;10.39;68.99
27210;BME280;14721;42.668;23.386;2023-03-21T05:38:47;95098.03;;;10.55;68.99
27210;BME280;14721;42.668;23.386;2023-03-21T05:41:14;95090.13;;;10.53;68.76
27210;BME280;14721;42.668;23.386;2023-03-21T05:43:40;95096.22;;;10.66;68.60
27210;BME280;14721;42.668;23.386;2023-03-21T05:46:06;95088.56;;;10.84;68.18
27210;BME280;14721;42.668;23.386;2023-03-21T05:48:32;95087.09;;;11.02;66.87
27210;BME280;14721;42.668;23.386;2023-03-21T05:50:59;95072.44;;;11.07;65.80
27210;BME280;14721;42.668;23.386;2023-03-21T05:53:30;95083.09;;;11.29;65.34
27210;BME280;14721;42.668;23.386;2023-03-21T05:55:56;95078.66;;;11.51;64.95
27210;BME280;14721;42.668;23.386;2023-03-21T05:58:22;95075.06;;;11.83;63.62
27210;BME280;14721;42.668;23.386;2023-03-21T06:00:49;95069.56;;;12.16;62.00
27210;BME280;14721;42.668;23.386;2023-03-21T06:03:16;95059.84;;;12.36;60.68
27210;BME280;14721;42.668;23.386;2023-03-21T06:05:46;95067.97;;;12.45;60.04
27210;BME280;14721;42.668;23.386;2023-03-21T06:08:12;95065.69;;;12.41;59.69
27210;BME280;14721;42.668;23.386;2023-03-21T06:10:38;95063.75;;;12.52;60.05
27210;BME280;14721;42.668;23.386;2023-03-21T06:13:04;95037.22;;;12.49;59.66
27210;BME280;14721;42.668;23.386;2023-03-21T06:15:29;95062.78;;;12.74;58.65
27210;BME280;14721;42.668;23.386;2023-03-21T06:17:55;95049.97;;;12.77;58.67
27210;BME280;14721;42.668;23.386;2023-03-21T06:20:22;95060.56;;;12.79;58.41
27210;BME280;14721;42.668;23.386;2023-03-21T06:22:48;95034.09;;;12.65;57.75
27210;BME280;14721;42.668;23.386;2023-03-21T06:25:13;95061.38;;;12.79;57.70
27210;BME280;14721;42.668;23.386;2023-03-21T06:27:39;95056.63;;;12.83;57.33
27210;BME280;14721;42.668;23.386;2023-03-21T06:30:05;95054.94;;;12.91;57.04
27210;BME280;14721;42.668;23.386;2023-03-21T06:32:32;95061.28;;;13.11;56.58
27210;BME280;14721;42.668;23.386;2023-03-21T06:37:43;95052.50;;;13.09;56.41
27210;BME280;14721;42.668;23.386;2023-03-21T06:40:10;95055.16;;;13.39;56.00
27210;BME280;14721;42.668;23.386;2023-03-21T06:42:36;95061.88;;;13.64;55.21
27210;BME280;14721;42.668;23.386;2023-03-21T06:45:02;95057.81;;;13.88;54.65
27210;BME280;14721;42.668;23.386;2023-03-21T06:47:27;95050.72;;;13.68;54.64
27210;BME280;14721;42.668;23.386;2023-03-21T06:49:53;95066.97;;;13.67;54.70
27210;BME280;14721;42.668;23.386;2023-03-21T06:52:18;95070.34;;;13.59;55.80
27210;BME280;14721;42.668;23.386;2023-03-21T06:54:44;95069.47;;;13.49;55.06
27210;BME280;14721;42.668;23.386;2023-03-21T06:57:09;95044.41;;;13.30;54.92
27210;BME280;14721;42.668;23.386;2023-03-21T06:59:35;95072.44;;;13.56;54.87
27210;BME280;14721;42.668;23.386;2023-03-21T07:02:01;95079.94;;;13.52;56.46
27210;BME280;14721;42.668;23.386;2023-03-21T07:04:26;95073.13;;;13.39;58.46
27210;BME280;14721;42.668;23.386;2023-03-21T07:06:52;95068.66;;;13.58;59.19
27210;BME280;14721;42.668;23.386;2023-03-21T07:09:18;95080.13;;;13.89;59.03
27210;BME280;14721;42.668;23.386;2023-03-21T07:11:45;95080.16;;;14.17;58.39
27210;BME280;14721;42.668;23.386;2023-03-21T07:14:11;95087.53;;;14.53;57.00
27210;BME280;14721;42.668;23.386;2023-03-21T07:16:37;95077.78;;;14.62;56.20
27210;BME280;14721;42.668;23.386;2023-03-21T07:19:02;95077.19;;;14.68;56.20
27210;BME280;14721;42.668;23.386;2023-03-21T07:21:28;95072.78;;;14.67;55.27
27210;BME280;14721;42.668;23.386;2023-03-21T07:23:53;95074.31;;;14.88;54.98
27210;BME280;14721;42.668;23.386;2023-03-21T07:26:19;95077.94;;;15.06;54.06
27210;BME280;14721;42.668;23.386;2023-03-21T07:28:44;95075.03;;;14.81;54.45
27210;BME280;14721;42.668;23.386;2023-03-21T07:31:15;95092.63;;;14.66;55.13
27210;BME280;14721;42.668;23.386;2023-03-21T07:33:41;95065.34;;;14.32;55.84
27210;BME280;14721;42.668;23.386;2023-03-21T07:36:16;95082.59;;;14.30;56.36
27210;BME280;14721;42.668;23.386;2023-03-21T07:38:42;95071.69;;;14.12;56.69
27210;BME280;14721;42.668;23.386;2023-03-21T07:41:08;95080.88;;;14.00;56.29
27210;BME280;14721;42.668;23.386;2023-03-21T07:43:34;95076.47;;;13.99;56.79
27210;BME280;14721;42.668;23.386;2023-03-21T07:46:00;95080.72;;;14.02;56.47
27210;BME280;14721;42.668;23.386;2023-03-21T07:48:26;95075.19;;;14.13;56.19
27210;BME280;14721;42.668;23.386;2023-03-21T07:50:52;95072.00;;;14.28;55.57
27210;BME280;14721;42.668;23.386;2023-03-21T07:53:18;95076.91;;;14.52;55.10
27210;BME280;14721;42.668;23.386;2023-03-21T07:55:43;95072.25;;;14.54;53.53
27210;BME280;14721;42.668;23.386;2023-03-21T07:58:09;95080.03;;;14.66;54.58
27210;BME280;14721;42.668;23.386;2023-03-21T08:00:34;95082.38;;;14.88;54.19
27210;BME280;14721;42.668;23.386;2023-03-21T08:03:00;95081.50;;;14.97;53.55
27210;BME280;14721;42.668;23.386;2023-03-21T08:05:28;95082.22;;;15.36;53.41
27210;BME280;14721;42.668;23.386;2023-03-21T08:07:55;95072.03;;;15.67;51.98
27210;BME280;14721;42.668;23.386;2023-03-21T08:10:21;95074.63;;;15.59;51.52
27210;BME280;14721;42.668;23.386;2023-03-21T08:12:46;95076.84;;;15.36;51.48
27210;BME280;14721;42.668;23.386;2023-03-21T08:15:13;95076.66;;;15.10;51.54
27210;BME280;14721;42.668;23.386;2023-03-21T08:17:39;95076.66;;;15.10;51.94
27210;BME280;14721;42.668;23.386;2023-03-21T08:20:06;95077.44;;;14.84;52.47
27210;BME280;14721;42.668;23.386;2023-03-21T08:22:34;95069.78;;;14.89;52.63
27210;BME280;14721;42.668;23.386;2023-03-21T08:25:00;95068.34;;;15.04;52.28
27210;BME280;14721;42.668;23.386;2023-03-21T08:27:26;95065.84;;;15.20;52.04
27210;BME280;14721;42.668;23.386;2023-03-21T08:29:51;95065.22;;;15.08;51.66
27210;BME280;14721;42.668;23.386;2023-03-21T08:32:17;95060.31;;;15.22;52.16
27210;BME280;14721;42.668;23.386;2023-03-21T08:34:43;95054.06;;;15.40;50.90
27210;BME280;14721;42.668;23.386;2023-03-21T08:37:09;95054.13;;;15.48;50.67
27210;BME280;14721;42.668;23.386;2023-03-21T08:39:34;95052.19;;;15.68;50.37
27210;BME280;14721;42.668;23.386;2023-03-21T08:42:00;95062.38;;;15.91;49.95
27210;BME280;14721;42.668;23.386;2023-03-21T08:44:25;95050.84;;;15.99;48.62
27210;BME280;14721;42.668;23.386;2023-03-21T08:46:51;95066.19;;;16.16;48.49
27210;BME280;14721;42.668;23.386;2023-03-21T08:49:16;95068.25;;;16.04;47.82
27210;BME280;14721;42.668;23.386;2023-03-21T08:51:42;95059.22;;;15.96;47.84
27210;BME280;14721;42.668;23.386;2023-03-21T08:54:17;95068.72;;;16.00;47.91
27210;BME280;14721;42.668;23.386;2023-03-21T08:56:44;95058.00;;;15.90;47.73
27210;BME280;14721;42.668;23.386;2023-03-21T08:59:09;95050.16;;;15.97;47.57
27210;BME280;14721;42.668;23.386;2023-03-21T09:01:35;95054.53;;;15.98;47.33
27210;BME280;14721;42.668;23.386;2023-03-21T09:04:01;95052.47;;;15.92;47.66
27210;BME280;14721;42.668;23.386;2023-03-21T09:06:27;95053.16;;;15.94;46.90
27210;BME280;14721;42.668;23.386;2023-03-21T09:08:54;95048.75;;;15.93;46.64
27210;BME280;14721;42.668;23.386;2023-03-21T09:11:21;95049.56;;;16.03;46.38
27210;BME280;14721;42.668;23.386;2023-03-21T09:13:47;95046.16;;;16.01;46.52
27210;BME280;14721;42.668;23.386;2023-03-21T09:16:12;95048.44;;;15.96;46.72
27210;BME280;14721;42.668;23.386;2023-03-21T09:18:38;95036.84;;;16.13;46.71
27210;BME280;14721;42.668;23.386;2023-03-21T09:21:12;95034.16;;;16.48;45.88
27210;BME280;14721;42.668;23.386;2023-03-21T09:23:42;95030.81;;;16.71;44.71
27210;BME280;14721;42.668;23.386;2023-03-21T09:26:12;95030.72;;;16.63;44.51
27210;BME280;14721;42.668;23.386;2023-03-21T09:28:39;95025.97;;;16.57;44.92
27210;BME280;14721;42.668;23.386;2023-03-21T09:31:05;95022.84;;;16.44;44.56
27210;BME280;14721;42.668;23.386;2023-03-21T09:33:33;95019.72;;;16.39;45.00
27210;BME280;14721;42.668;23.386;2023-03-21T09:35:59;95009.63;;;16.41;44.73
27210;BME280;14721;42.668;23.386;2023-03-21T09:38:26;95015.97;;;16.50;44.57
27210;BME280;14721;42.668;23.386;2023-03-21T09:43:56;95001.91;;;16.64;43.99
27210;BME280;14721;42.668;23.386;2023-03-21T09:46:44;94975.03;;;16.54;42.97
27210;BME280;14721;42.668;23.386;2023-03-21T09:49:24;94984.78;;;16.73;43.07
27210;BME280;14721;42.668;23.386;2023-03-21T09:51:58;94992.31;;;16.87;43.22
27210;BME280;14721;42.668;23.386;2023-03-21T09:54:31;94997.09;;;17.01;43.03
27210;BME280;14721;42.668;23.386;2023-03-21T09:57:04;94997.06;;;16.93;43.50
27210;BME280;14721;42.668;23.386;2023-03-21T09:59:37;94986.59;;;16.98;43.47
27210;BME280;14721;42.668;23.386;2023-03-21T10:02:37;95006.13;;;17.18;42.66
27210;BME280;14721;42.668;23.386;2023-03-21T10:05:30;94988.13;;;17.26;42.63
27210;BME280;14721;42.668;23.386;2023-03-21T10:08:17;94986.28;;;17.35;42.60
27210;BME280;14721;42.668;23.386;2023-03-21T10:10:49;94979.50;;;17.23;42.45
27210;BME280;14721;42.668;23.386;2023-03-21T10:13:20;94982.31;;;17.13;42.40
27210;BME280;14721;42.668;23.386;2023-03-21T10:15:47;94976.78;;;17.23;42.47
27210;BME280;14721;42.668;23.386;2023-03-21T10:18:22;94973.94;;;17.24;43.41
27210;BME280;14721;42.668;23.386;2023-03-21T10:20:49;94968.97;;;17.45;42.64
27210;BME280;14721;42.668;23.386;2023-03-21T10:23:18;94964.69;;;17.68;41.72
27210;BME280;14721;42.668;23.386;2023-03-21T10:26:00;94958.81;;;18.05;41.25
27210;BME280;14721;42.668;23.386;2023-03-21T10:28:36;94956.78;;;18.23;40.76
27210;BME280;14721;42.668;23.386;2023-03-21T10:31:04;94953.94;;;18.40;40.69
27210;BME280;14721;42.668;23.386;2023-03-21T10:33:34;94940.94;;;18.52;39.92
27210;BME280;14721;42.668;23.386;2023-03-21T10:36:11;94964.94;;;18.55;39.41
27210;BME280;14721;42.668;23.386;2023-03-21T10:38:45;94971.28;;;17.90;40.18
27210;BME280;14721;42.668;23.386;2023-03-21T10:41:11;94968.38;;;17.59;41.01
27210;BME280;14721;42.668;23.386;2023-03-21T10:43:39;94951.19;;;17.35;40.61
27210;BME280;14721;42.668;23.386;2023-03-21T10:46:08;94976.16;;;17.78;40.08
27210;BME280;14721;42.668;23.386;2023-03-21T10:48:37;94977.53;;;17.98;39.55
27210;BME280;14721;42.668;23.386;2023-03-21T10:51:06;94947.63;;;18.00;39.48
27210;BME280;14721;42.668;23.386;2023-03-21T10:53:38;94947.16;;;18.12;39.27
27210;BME280;14721;42.668;23.386;2023-03-21T10:56:09;94958.16;;;18.35;39.47
27210;BME280;14721;42.668;23.386;2023-03-21T10:58:45;94954.78;;;18.41;39.45
27210;BME280;14721;42.668;23.386;2023-03-21T11:01:23;94947.31;;;18.83;39.12
27210;BME280;14721;42.668;23.386;2023-03-21T11:04:16;94913.53;;;19.10;37.64
27210;BME280;14721;42.668;23.386;2023-03-21T11:06:43;94939.97;;;19.54;36.65
27210;BME280;14721;42.668;23.386;2023-03-21T11:09:15;94934.78;;;19.37;36.38
27210;BME280;14721;42.668;23.386;2023-03-21T11:14:44;94925.69;;;19.30;36.05
27210;BME280;14721;42.668;23.386;2023-03-21T11:17:27;94923.84;;;19.14;34.82
27210;BME280;14721;42.668;23.386;2023-03-21T11:19:57;94920.31;;;19.14;34.91
27210;BME280;14721;42.668;23.386;2023-03-21T11:22:28;94910.72;;;18.95;35.31
27210;BME280;14721;42.668;23.386;2023-03-21T11:25:02;94921.84;;;19.08;35.59
27210;BME280;14721;42.668;23.386;2023-03-21T11:27:30;94912.06;;;18.99;35.04
27210;BME280;14721;42.668;23.386;2023-03-21T11:29:58;94915.78;;;18.98;35.77
27210;BME280;14721;42.668;23.386;2023-03-21T11:32:33;94910.84;;;19.10;35.13
27210;BME280;14721;42.668;23.386;2023-03-21T11:35:20;94902.00;;;19.32;34.71
27210;BME280;14721;42.668;23.386;2023-03-21T11:37:51;94889.28;;;19.24;35.14
27210;BME280;14721;42.668;23.386;2023-03-21T11:47:51;94890.81;;;18.72;35.05
27210;BME280;14721;42.668;23.386;2023-03-21T11:55:35;94855.53;;;18.49;34.99
27210;BME280;14721;42.668;23.386;2023-03-21T12:06:36;94874.22;;;19.22;34.86
27210;BME280;14721;42.668;23.386;2023-03-21T12:12:00;94860.31;;;18.94;34.80
27210;BME280;14721;42.668;23.386;2023-03-21T12:20:06;94848.09;;;19.06;34.31
27210;BME280;14721;42.668;23.386;2023-03-21T12:30:47;94851.69;;;19.29;34.13
27210;BME280;14721;42.668;23.386;2023-03-21T12:41:42;94832.88;;;19.36;33.84
27210;BME280;14721;42.668;23.386;2023-03-21T12:44:16;94831.22;;;19.35;33.64
27210;BME280;14721;42.668;23.386;2023-03-21T12:46:50;94829.50;;;19.34;34.17
27210;BME280;14721;42.668;23.386;2023-03-21T12:49:59;94832.38;;;19.32;34.17
27210;BME280;14721;42.668;23.386;2023-03-21T12:52:31;94824.75;;;19.36;33.86
27210;BME280;14721;42.668;23.386;2023-03-21T12:55:05;94824.09;;;18.95;34.46
27210;BME280;14721;42.668;23.386;2023-03-21T12:57:40;94817.56;;;18.82;34.73
27210;BME280;14721;42.668;23.386;2023-03-21T13:00:31;94816.72;;;19.12;34.79
27210;BME280;14721;42.668;23.386;2023-03-21T13:05:50;94797.00;;;19.34;34.02
27210;BME280;14721;42.668;23.386;2023-03-21T13:08:36;94803.25;;;19.34;34.50
27210;BME280;14721;42.668;23.386;2023-03-21T13:11:05;94805.84;;;19.28;34.52
27210;BME280;14721;42.668;23.386;2023-03-21T13:27:13;94791.16;;;19.14;36.23
27210;BME280;14721;42.668;23.386;2023-03-21T13:29:44;94784.03;;;19.21;36.22
27210;BME280;14721;42.668;23.386;2023-03-21T13:34:57;94775.59;;;19.47;36.08
27210;BME280;14721;42.668;23.386;2023-03-21T13:37:25;94778.22;;;19.55;36.06
27210;BME280;14721;42.668;23.386;2023-03-21T13:39:59;94773.34;;;19.50;36.38
27210;BME280;14721;42.668;23.386;2023-03-21T13:42:31;94778.94;;;19.49;36.01
27210;BME280;14721;42.668;23.386;2023-03-21T13:45:06;94779.78;;;19.27;36.25
27210;BME280;14721;42.668;23.386;2023-03-21T13:47:38;94775.78;;;19.07;37.01
27210;BME280;14721;42.668;23.386;2023-03-21T13:52:38;94762.34;;;18.91;37.49
27210;BME280;14721;42.668;23.386;2023-03-21T13:55:14;94765.41;;;18.88;37.69
27210;BME280;14721;42.668;23.386;2023-03-21T13:57:41;94760.31;;;18.93;38.00
27210;BME280;14721;42.668;23.386;2023-03-21T14:00:38;94768.38;;;19.01;38.11
27210;BME280;14721;42.668;23.386;2023-03-21T14:03:09;94762.63;;;19.04;38.38
27210;BME280;14721;42.668;23.386;2023-03-21T14:05:37;94770.16;;;18.86;38.81
27210;BME280;14721;42.668;23.386;2023-03-21T14:08:09;94762.91;;;18.78;39.05
27210;BME280;14721;42.668;23.386;2023-03-21T14:10:42;94765.09;;;18.52;39.77
27210;BME280;14721;42.668;23.386;2023-03-21T14:13:14;94767.97;;;18.42;39.92
27210;BME280;14721;42.668;23.386;2023-03-21T14:16:09;94759.22;;;18.24;40.49
27210;BME280;14721;42.668;23.386;2023-03-21T14:18:44;94764.78;;;18.23;40.83
27210;BME280;14721;42.668;23.386;2023-03-21T14:21:20;94764.47;;;18.18;41.03
27210;BME280;14721;42.668;23.386;2023-03-21T14:23:55;94749.97;;;18.03;40.82
27210;BME280;14721;42.668;23.386;2023-03-21T14:26:21;94766.34;;;18.01;40.98
27210;BME280;14721;42.668;23.386;2023-03-21T14:28:48;94758.25;;;18.09;41.02
27210;BME280;14721;42.668;23.386;2023-03-21T14:31:17;94765.84;;;18.14;40.81
27210;BME280;14721;42.668;23.386;2023-03-21T14:34:02;94758.78;;;17.97;41.29
27210;BME280;14721;42.668;23.386;2023-03-21T14:36:32;94761.97;;;18.00;41.34
27210;BME280;14721;42.668;23.386;2023-03-21T14:39:09;94759.31;;;17.92;41.36
27210;BME280;14721;42.668;23.386;2023-03-21T14:41:53;94756.09;;;17.81;41.18
27210;BME280;14721;42.668;23.386;2023-03-21T14:47:02;94752.56;;;17.72;41.77
27210;BME280;14721;42.668;23.386;2023-03-21T14:49:30;94759.34;;;17.68;42.19
27210;BME280;14721;42.668;23.386;2023-03-21T14:52:02;94749.38;;;17.61;42.21
27210;BME280;14721;42.668;23.386;2023-03-21T14:54:31;94759.16;;;17.62;42.78
27210;BME280;14721;42.668;23.386;2023-03-21T14:57:04;94752.25;;;17.59;42.96
27210;BME280;14721;42.668;23.386;2023-03-21T14:59:35;94752.06;;;17.61;43.15
27210;BME280;14721;42.668;23.386;2023-03-21T15:02:17;94742.25;;;17.60;43.01
27210;BME280;14721;42.668;23.386;2023-03-21T15:07:34;94751.22;;;17.52;43.28
27210;BME280;14721;42.668;23.386;2023-03-21T15:10:05;94756.78;;;17.43;43.38
27210;BME280;14721;42.668;23.386;2023-03-21T15:12:31;94755.25;;;17.32;44.18